sensor_id;sensor_type;location;lat;lon;timestamp;P1;durP1;ratioP1;P2;durP2;ratioP2
22713;SDS011;11524;50.846;4.326;2023-07-09T00:01:52;8.88;;;7.18;;
22713;SDS011;11524;50.846;4.326;2023-07-09T00:04:18;8.77;;;6.43;;
22713;SDS011;11524;50.846;4.326;2023-07-09T00:06:44;8.35;;;6.60;;
22713;SDS011;11524;50.846;4.326;2023-07-09T00:09:14;8.18;;;6.80;;
22713;SDS011;11524;50.846;4.326;2023-07-09T00:11:42;7.15;;;6.20;;
22713;SDS011;11524;50.846;4.326;2023-07-09T00:14:12;8.95;;;6.30;;
22713;SDS011;11524;50.846;4.326;2023-07-09T00:16:40;7.65;;;6.38;;
22713;SDS011;11524;50.846;4.326;2023-07-09T00:19:11;8.52;;;6.68;;
22713;SDS011;11524;50.846;4.326;2023-07-09T00:21:39;7.93;;;6.10;;
22713;SDS011;11524;50.846;4.326;2023-07-09T00:24:06;9.18;;;6.40;;
22713;SDS011;11524;50.846;4.326;2023-07-09T00:26:32;8.85;;;6.30;;
22713;SDS011;11524;50.846;4.326;2023-07-09T00:28:59;8.43;;;6.53;;
22713;SDS011;11524;50.846;4.326;2023-07-09T00:31:25;7.75;;;6.40;;
22713;SDS011;11524;50.846;4.326;2023-07-09T00:33:51;6.88;;;5.65;;
22713;SDS011;11524;50.846;4.326;2023-07-09T00:36:27;8.07;;;6.47;;
22713;SDS011;11524;50.846;4.326;2023-07-09T00:38:55;6.85;;;6.03;;
22713;SDS011;11524;50.846;4.326;2023-07-09T00:41:24;8.35;;;6.10;;
22713;SDS011;11524;50.846;4.326;2023-07-09T00:43:51;8.00;;;6.35;;
22713;SDS011;11524;50.846;4.326;2023-07-09T00:48:48;6.78;;;6.03;;
22713;SDS011;11524;50.846;4.326;2023-07-09T00:51:19;6.65;;;5.75;;
22713;SDS011;11524;50.846;4.326;2023-07-09T00:53:48;8.55;;;6.38;;
22713;SDS011;11524;50.846;4.326;2023-07-09T00:56:18;8.68;;;6.25;;
22713;SDS011;11524;50.846;4.326;2023-07-09T00:59:16;8.65;;;6.13;;
22713;SDS011;11524;50.846;4.326;2023-07-09T01:01:48;7.18;;;5.57;;
22713;SDS011;11524;50.846;4.326;2023-07-09T01:04:15;6.72;;;5.97;;
22713;SDS011;11524;50.846;4.326;2023-07-09T01:06:48;13.98;;;6.20;;
22713;SDS011;11524;50.846;4.326;2023-07-09T01:09:16;9.30;;;6.50;;
22713;SDS011;11524;50.846;4.326;2023-07-09T01:11:43;8.82;;;6.35;;
22713;SDS011;11524;50.846;4.326;2023-07-09T01:14:09;8.02;;;6.10;;
22713;SDS011;11524;50.846;4.326;2023-07-09T01:16:46;8.05;;;6.25;;
22713;SDS011;11524;50.846;4.326;2023-07-09T01:19:22;7.00;;;6.18;;
22713;SDS011;11524;50.846;4.326;2023-07-09T01:21:57;7.53;;;6.28;;
22713;SDS011;11524;50.846;4.326;2023-07-09T01:27:11;6.78;;;5.97;;
22713;SDS011;11524;50.846;4.326;2023-07-09T01:29:37;8.23;;;6.47;;
22713;SDS011;11524;50.846;4.326;2023-07-09T01:32:03;7.35;;;6.40;;
22713;SDS011;11524;50.846;4.326;2023-07-09T01:34:31;7.70;;;5.95;;
22713;SDS011;11524;50.846;4.326;2023-07-09T01:36:57;7.22;;;6.07;;
22713;SDS011;11524;50.846;4.326;2023-07-09T01:39:23;8.82;;;5.80;;
22713;SDS011;11524;50.846;4.326;2023-07-09T01:41:50;9.68;;;6.72;;
22713;SDS011;11524;50.846;4.326;2023-07-09T01:44:16;6.88;;;5.80;;
22713;SDS011;11524;50.846;4.326;2023-07-09T01:46:42;7.55;;;6.22;;
22713;SDS011;11524;50.846;4.326;2023-07-09T01:49:10;6.68;;;5.47;;
22713;SDS011;11524;50.846;4.326;2023-07-09T01:51:35;8.35;;;6.55;;
22713;SDS011;11524;50.846;4.326;2023-07-09T01:54:02;6.97;;;5.57;;
22713;SDS011;11524;50.846;4.326;2023-07-09T01:56:28;7.43;;;5.93;;
22713;SDS011;11524;50.846;4.326;2023-07-09T01:58:54;6.43;;;5.82;;
22713;SDS011;11524;50.846;4.326;2023-07-09T02:01:25;8.82;;;6.40;;
22713;SDS011;11524;50.846;4.326;2023-07-09T02:03:52;8.25;;;6.20;;
22713;SDS011;11524;50.846;4.326;2023-07-09T02:06:18;6.85;;;5.90;;
22713;SDS011;11524;50.846;4.326;2023-07-09T02:08:45;6.88;;;5.93;;
22713;SDS011;11524;50.846;4.326;2023-07-09T02:11:11;6.13;;;5.50;;
22713;SDS011;11524;50.846;4.326;2023-07-09T02:13:36;7.03;;;6.10;;
22713;SDS011;11524;50.846;4.326;2023-07-09T02:16:02;6.82;;;5.43;;
22713;SDS011;11524;50.846;4.326;2023-07-09T02:18:28;6.53;;;5.80;;
22713;SDS011;11524;50.846;4.326;2023-07-09T02:20:54;7.18;;;5.68;;
22713;SDS011;11524;50.846;4.326;2023-07-09T02:23:19;8.32;;;5.78;;
22713;SDS011;11524;50.846;4.326;2023-07-09T02:25:45;7.85;;;6.30;;
22713;SDS011;11524;50.846;4.326;2023-07-09T02:28:11;7.00;;;5.78;;
22713;SDS011;11524;50.846;4.326;2023-07-09T02:30:36;7.07;;;5.55;;
22713;SDS011;11524;50.846;4.326;2023-07-09T02:33:02;9.60;;;6.38;;
22713;SDS011;11524;50.846;4.326;2023-07-09T02:35:28;6.28;;;5.47;;
22713;SDS011;11524;50.846;4.326;2023-07-09T02:37:53;8.27;;;5.80;;
22713;SDS011;11524;50.846;4.326;2023-07-09T02:40:19;8.23;;;6.05;;
22713;SDS011;11524;50.846;4.326;2023-07-09T02:42:44;7.50;;;5.72;;
22713;SDS011;11524;50.846;4.326;2023-07-09T02:45:10;6.75;;;5.15;;
22713;SDS011;11524;50.846;4.326;2023-07-09T02:47:36;8.10;;;6.05;;
22713;SDS011;11524;50.846;4.326;2023-07-09T02:50:02;6.80;;;5.32;;
22713;SDS011;11524;50.846;4.326;2023-07-09T02:52:28;6.35;;;5.45;;
22713;SDS011;11524;50.846;4.326;2023-07-09T02:54:53;7.28;;;5.85;;
22713;SDS011;11524;50.846;4.326;2023-07-09T02:57:19;7.93;;;5.70;;
22713;SDS011;11524;50.846;4.326;2023-07-09T02:59:44;6.28;;;4.90;;
22713;SDS011;11524;50.846;4.326;2023-07-09T03:02:10;8.13;;;5.68;;
22713;SDS011;11524;50.846;4.326;2023-07-09T03:04:36;6.60;;;5.28;;
22713;SDS011;11524;50.846;4.326;2023-07-09T03:07:01;8.38;;;5.60;;
22713;SDS011;11524;50.846;4.326;2023-07-09T03:09:27;7.57;;;6.10;;
22713;SDS011;11524;50.846;4.326;2023-07-09T03:11:53;6.78;;;5.38;;
22713;SDS011;11524;50.846;4.326;2023-07-09T03:14:19;7.88;;;6.22;;
22713;SDS011;11524;50.846;4.326;2023-07-09T03:16:44;7.60;;;5.28;;
22713;SDS011;11524;50.846;4.326;2023-07-09T03:19:10;7.80;;;5.55;;
22713;SDS011;11524;50.846;4.326;2023-07-09T03:21:36;6.32;;;5.32;;
22713;SDS011;11524;50.846;4.326;2023-07-09T03:24:01;8.50;;;5.68;;
22713;SDS011;11524;50.846;4.326;2023-07-09T03:26:27;6.50;;;4.90;;
22713;SDS011;11524;50.846;4.326;2023-07-09T03:28:53;6.55;;;5.40;;
22713;SDS011;11524;50.846;4.326;2023-07-09T03:31:19;8.02;;;5.57;;
22713;SDS011;11524;50.846;4.326;2023-07-09T03:33:46;7.30;;;6.10;;
22713;SDS011;11524;50.846;4.326;2023-07-09T03:36:12;7.72;;;5.13;;
22713;SDS011;11524;50.846;4.326;2023-07-09T03:38:38;6.82;;;5.15;;
22713;SDS011;11524;50.846;4.326;2023-07-09T03:41:04;8.00;;;4.95;;
22713;SDS011;11524;50.846;4.326;2023-07-09T03:43:30;7.22;;;5.28;;
22713;SDS011;11524;50.846;4.326;2023-07-09T03:45:55;8.05;;;4.80;;
22713;SDS011;11524;50.846;4.326;2023-07-09T03:48:21;7.47;;;5.53;;
22713;SDS011;11524;50.846;4.326;2023-07-09T03:50:47;7.30;;;5.13;;
22713;SDS011;11524;50.846;4.326;2023-07-09T03:53:13;8.38;;;5.15;;
22713;SDS011;11524;50.846;4.326;2023-07-09T03:55:40;6.50;;;5.07;;
22713;SDS011;11524;50.846;4.326;2023-07-09T03:58:05;7.25;;;5.35;;
22713;SDS011;11524;50.846;4.326;2023-07-09T04:00:31;7.70;;;5.10;;
22713;SDS011;11524;50.846;4.326;2023-07-09T04:02:58;5.95;;;4.95;;
22713;SDS011;11524;50.846;4.326;2023-07-09T04:05:24;7.53;;;5.40;;
22713;SDS011;11524;50.846;4.326;2023-07-09T04:07:50;7.35;;;5.45;;
22713;SDS011;11524;50.846;4.326;2023-07-09T04:10:16;8.93;;;5.20;;
22713;SDS011;11524;50.846;4.326;2023-07-09T04:12:42;6.78;;;5.28;;
22713;SDS011;11524;50.846;4.326;2023-07-09T04:15:08;6.75;;;5.25;;
22713;SDS011;11524;50.846;4.326;2023-07-09T04:17:35;7.57;;;5.35;;
22713;SDS011;11524;50.846;4.326;2023-07-09T04:20:01;6.53;;;5.32;;
22713;SDS011;11524;50.846;4.326;2023-07-09T04:22:34;7.15;;;5.30;;
22713;SDS011;11524;50.846;4.326;2023-07-09T04:25:01;6.50;;;5.53;;
22713;SDS011;11524;50.846;4.326;2023-07-09T04:27:28;6.80;;;4.82;;
22713;SDS011;11524;50.846;4.326;2023-07-09T04:29:55;7.22;;;5.50;;
22713;SDS011;11524;50.846;4.326;2023-07-09T04:32:21;6.97;;;5.13;;
22713;SDS011;11524;50.846;4.326;2023-07-09T04:34:47;6.60;;;4.80;;
22713;SDS011;11524;50.846;4.326;2023-07-09T04:37:13;8.45;;;5.38;;
22713;SDS011;11524;50.846;4.326;2023-07-09T04:39:43;6.82;;;5.38;;
22713;SDS011;11524;50.846;4.326;2023-07-09T04:42:10;9.13;;;5.10;;
22713;SDS011;11524;50.846;4.326;2023-07-09T04:44:37;6.07;;;4.80;;
22713;SDS011;11524;50.846;4.326;2023-07-09T04:47:03;7.25;;;5.10;;
22713;SDS011;11524;50.846;4.326;2023-07-09T04:49:29;8.45;;;5.20;;
22713;SDS011;11524;50.846;4.326;2023-07-09T04:51:54;9.02;;;5.60;;
22713;SDS011;11524;50.846;4.326;2023-07-09T04:54:21;9.10;;;5.28;;
22713;SDS011;11524;50.846;4.326;2023-07-09T04:56:48;8.43;;;5.47;;
22713;SDS011;11524;50.846;4.326;2023-07-09T04:59:14;12.27;;;5.25;;
22713;SDS011;11524;50.846;4.326;2023-07-09T05:01:40;8.10;;;5.10;;
22713;SDS011;11524;50.846;4.326;2023-07-09T05:04:06;9.90;;;5.70;;
22713;SDS011;11524;50.846;4.326;2023-07-09T05:06:32;7.72;;;5.43;;
22713;SDS011;11524;50.846;4.326;2023-07-09T05:08:58;10.57;;;5.60;;
22713;SDS011;11524;50.846;4.326;2023-07-09T05:11:24;9.57;;;5.82;;
22713;SDS011;11524;50.846;4.326;2023-07-09T05:13:49;7.85;;;5.78;;
22713;SDS011;11524;50.846;4.326;2023-07-09T05:16:15;10.93;;;5.75;;
22713;SDS011;11524;50.846;4.326;2023-07-09T05:18:41;10.07;;;5.75;;
22713;SDS011;11524;50.846;4.326;2023-07-09T05:21:07;9.30;;;5.43;;
22713;SDS011;11524;50.846;4.326;2023-07-09T05:23:33;8.25;;;5.45;;
22713;SDS011;11524;50.846;4.326;2023-07-09T05:25:59;10.20;;;6.13;;
22713;SDS011;11524;50.846;4.326;2023-07-09T05:28:27;10.13;;;5.80;;
22713;SDS011;11524;50.846;4.326;2023-07-09T05:30:53;8.88;;;6.05;;
22713;SDS011;11524;50.846;4.326;2023-07-09T05:33:18;6.85;;;5.28;;
22713;SDS011;11524;50.846;4.326;2023-07-09T05:35:44;9.43;;;5.85;;
22713;SDS011;11524;50.846;4.326;2023-07-09T05:38:11;8.07;;;5.85;;
22713;SDS011;11524;50.846;4.326;2023-07-09T05:40:37;8.48;;;5.43;;
22713;SDS011;11524;50.846;4.326;2023-07-09T05:43:03;7.32;;;5.13;;
22713;SDS011;11524;50.846;4.326;2023-07-09T05:45:28;8.52;;;5.40;;
22713;SDS011;11524;50.846;4.326;2023-07-09T05:47:55;9.13;;;5.97;;
22713;SDS011;11524;50.846;4.326;2023-07-09T05:50:20;8.63;;;5.47;;
22713;SDS011;11524;50.846;4.326;2023-07-09T05:52:46;11.63;;;6.35;;
22713;SDS011;11524;50.846;4.326;2023-07-09T05:55:11;8.52;;;5.57;;
22713;SDS011;11524;50.846;4.326;2023-07-09T05:57:38;11.18;;;5.80;;
22713;SDS011;11524;50.846;4.326;2023-07-09T06:00:03;11.73;;;6.00;;
22713;SDS011;11524;50.846;4.326;2023-07-09T06:02:29;11.85;;;5.40;;
22713;SDS011;11524;50.846;4.326;2023-07-09T06:04:55;9.85;;;5.45;;
22713;SDS011;11524;50.846;4.326;2023-07-09T06:07:21;12.38;;;6.00;;
22713;SDS011;11524;50.846;4.326;2023-07-09T06:09:47;11.32;;;6.00;;
22713;SDS011;11524;50.846;4.326;2023-07-09T06:12:12;10.23;;;6.22;;
22713;SDS011;11524;50.846;4.326;2023-07-09T06:14:38;9.98;;;5.40;;
22713;SDS011;11524;50.846;4.326;2023-07-09T06:17:05;8.73;;;5.38;;
22713;SDS011;11524;50.846;4.326;2023-07-09T06:19:30;8.85;;;5.90;;
22713;SDS011;11524;50.846;4.326;2023-07-09T06:21:56;10.25;;;6.03;;
22713;SDS011;11524;50.846;4.326;2023-07-09T06:24:22;10.15;;;6.07;;
22713;SDS011;11524;50.846;4.326;2023-07-09T06:26:48;9.77;;;6.13;;
22713;SDS011;11524;50.846;4.326;2023-07-09T06:29:14;10.85;;;5.82;;
22713;SDS011;11524;50.846;4.326;2023-07-09T06:31:39;8.10;;;5.32;;
22713;SDS011;11524;50.846;4.326;2023-07-09T06:34:07;9.30;;;5.78;;
22713;SDS011;11524;50.846;4.326;2023-07-09T06:36:34;11.80;;;5.97;;
22713;SDS011;11524;50.846;4.326;2023-07-09T06:39:01;9.73;;;6.00;;
22713;SDS011;11524;50.846;4.326;2023-07-09T06:41:27;10.82;;;5.95;;
22713;SDS011;11524;50.846;4.326;2023-07-09T06:43:54;12.95;;;6.40;;
22713;SDS011;11524;50.846;4.326;2023-07-09T06:46:20;9.48;;;6.43;;
22713;SDS011;11524;50.846;4.326;2023-07-09T06:48:46;8.73;;;6.15;;
22713;SDS011;11524;50.846;4.326;2023-07-09T06:51:12;12.55;;;6.72;;
22713;SDS011;11524;50.846;4.326;2023-07-09T06:53:38;11.60;;;7.30;;
22713;SDS011;11524;50.846;4.326;2023-07-09T06:56:04;11.20;;;7.22;;
22713;SDS011;11524;50.846;4.326;2023-07-09T06:58:30;10.55;;;7.63;;
22713;SDS011;11524;50.846;4.326;2023-07-09T07:00:59;10.52;;;7.35;;
22713;SDS011;11524;50.846;4.326;2023-07-09T07:03:28;13.88;;;9.02;;
22713;SDS011;11524;50.846;4.326;2023-07-09T07:05:54;12.13;;;9.18;;
22713;SDS011;11524;50.846;4.326;2023-07-09T07:08:21;15.27;;;9.73;;
22713;SDS011;11524;50.846;4.326;2023-07-09T07:10:53;14.95;;;10.40;;
22713;SDS011;11524;50.846;4.326;2023-07-09T07:13:27;16.70;;;9.60;;
22713;SDS011;11524;50.846;4.326;2023-07-09T07:16:13;16.67;;;10.60;;
22713;SDS011;11524;50.846;4.326;2023-07-09T07:18:39;16.15;;;12.07;;
22713;SDS011;11524;50.846;4.326;2023-07-09T07:21:05;16.30;;;11.95;;
22713;SDS011;11524;50.846;4.326;2023-07-09T07:23:31;15.05;;;11.07;;
22713;SDS011;11524;50.846;4.326;2023-07-09T07:25:56;20.63;;;13.55;;
22713;SDS011;11524;50.846;4.326;2023-07-09T07:28:22;14.70;;;10.13;;
22713;SDS011;11524;50.846;4.326;2023-07-09T07:30:57;15.75;;;10.52;;
22713;SDS011;11524;50.846;4.326;2023-07-09T07:33:27;18.30;;;11.40;;
22713;SDS011;11524;50.846;4.326;2023-07-09T07:35:52;18.33;;;12.02;;
22713;SDS011;11524;50.846;4.326;2023-07-09T07:38:18;14.93;;;11.85;;
22713;SDS011;11524;50.846;4.326;2023-07-09T07:40:44;14.70;;;10.90;;
22713;SDS011;11524;50.846;4.326;2023-07-09T07:43:10;17.75;;;11.75;;
22713;SDS011;11524;50.846;4.326;2023-07-09T07:45:39;14.82;;;10.13;;
22713;SDS011;11524;50.846;4.326;2023-07-09T07:48:08;21.30;;;13.77;;
22713;SDS011;11524;50.846;4.326;2023-07-09T07:50:34;13.27;;;10.90;;
22713;SDS011;11524;50.846;4.326;2023-07-09T07:53:00;29.65;;;20.63;;
22713;SDS011;11524;50.846;4.326;2023-07-09T07:55:26;32.55;;;22.45;;
22713;SDS011;11524;50.846;4.326;2023-07-09T07:57:52;32.03;;;23.33;;
22713;SDS011;11524;50.846;4.326;2023-07-09T08:00:18;34.97;;;23.65;;
22713;SDS011;11524;50.846;4.326;2023-07-09T08:02:44;31.58;;;21.73;;
22713;SDS011;11524;50.846;4.326;2023-07-09T08:05:10;33.47;;;20.88;;
22713;SDS011;11524;50.846;4.326;2023-07-09T08:07:36;30.20;;;20.05;;
22713;SDS011;11524;50.846;4.326;2023-07-09T08:10:01;30.00;;;20.05;;
22713;SDS011;11524;50.846;4.326;2023-07-09T08:12:27;31.45;;;22.73;;
22713;SDS011;11524;50.846;4.326;2023-07-09T08:14:53;30.23;;;21.92;;
22713;SDS011;11524;50.846;4.326;2023-07-09T08:17:18;28.92;;;20.65;;
22713;SDS011;11524;50.846;4.326;2023-07-09T08:19:45;28.35;;;19.85;;
22713;SDS011;11524;50.846;4.326;2023-07-09T08:22:15;29.63;;;19.38;;
22713;SDS011;11524;50.846;4.326;2023-07-09T08:24:41;29.02;;;18.42;;
22713;SDS011;11524;50.846;4.326;2023-07-09T08:27:07;24.63;;;17.95;;
22713;SDS011;11524;50.846;4.326;2023-07-09T08:29:33;29.17;;;18.95;;
22713;SDS011;11524;50.846;4.326;2023-07-09T08:31:59;25.08;;;17.88;;
22713;SDS011;11524;50.846;4.326;2023-07-09T08:34:26;23.25;;;16.90;;
22713;SDS011;11524;50.846;4.326;2023-07-09T08:36:52;24.13;;;17.98;;
22713;SDS011;11524;50.846;4.326;2023-07-09T08:39:17;22.27;;;17.30;;
22713;SDS011;11524;50.846;4.326;2023-07-09T08:41:54;24.30;;;16.80;;
22713;SDS011;11524;50.846;4.326;2023-07-09T08:44:26;25.13;;;16.67;;
22713;SDS011;11524;50.846;4.326;2023-07-09T08:47:07;24.10;;;17.20;;
22713;SDS011;11524;50.846;4.326;2023-07-09T08:52:39;21.55;;;15.38;;
22713;SDS011;11524;50.846;4.326;2023-07-09T08:55:20;23.80;;;16.15;;
22713;SDS011;11524;50.846;4.326;2023-07-09T08:58:05;21.33;;;15.10;;
22713;SDS011;11524;50.846;4.326;2023-07-09T09:00:44;25.85;;;16.08;;
22713;SDS011;11524;50.846;4.326;2023-07-09T09:06:24;20.58;;;15.00;;
22713;SDS011;11524;50.846;4.326;2023-07-09T09:09:15;22.35;;;15.60;;
22713;SDS011;11524;50.846;4.326;2023-07-09T09:14:38;17.63;;;13.63;;
22713;SDS011;11524;50.846;4.326;2023-07-09T09:17:11;23.30;;;14.30;;
22713;SDS011;11524;50.846;4.326;2023-07-09T09:19:43;20.42;;;14.20;;
22713;SDS011;11524;50.846;4.326;2023-07-09T09:22:17;31.52;;;22.50;;
22713;SDS011;11524;50.846;4.326;2023-07-09T09:24:53;34.30;;;24.27;;
22713;SDS011;11524;50.846;4.326;2023-07-09T09:27:26;23.65;;;14.98;;
22713;SDS011;11524;50.846;4.326;2023-07-09T09:29:51;24.20;;;15.90;;
22713;SDS011;11524;50.846;4.326;2023-07-09T09:34:53;21.48;;;15.00;;
22713;SDS011;11524;50.846;4.326;2023-07-09T09:37:25;21.15;;;15.07;;
22713;SDS011;11524;50.846;4.326;2023-07-09T09:39:55;22.70;;;15.98;;
22713;SDS011;11524;50.846;4.326;2023-07-09T09:42:23;20.95;;;16.17;;
22713;SDS011;11524;50.846;4.326;2023-07-09T09:44:50;24.60;;;16.38;;
22713;SDS011;11524;50.846;4.326;2023-07-09T09:47:19;25.58;;;15.75;;
22713;SDS011;11524;50.846;4.326;2023-07-09T09:49:45;29.40;;;22.00;;
22713;SDS011;11524;50.846;4.326;2023-07-09T09:52:15;33.45;;;22.67;;
22713;SDS011;11524;50.846;4.326;2023-07-09T09:54:51;23.63;;;17.50;;
22713;SDS011;11524;50.846;4.326;2023-07-09T09:57:27;25.25;;;18.15;;
22713;SDS011;11524;50.846;4.326;2023-07-09T09:59:54;25.83;;;18.52;;
22713;SDS011;11524;50.846;4.326;2023-07-09T10:02:21;31.13;;;18.25;;
22713;SDS011;11524;50.846;4.326;2023-07-09T10:04:49;28.33;;;19.77;;
22713;SDS011;11524;50.846;4.326;2023-07-09T10:07:23;28.65;;;19.40;;
22713;SDS011;11524;50.846;4.326;2023-07-09T10:09:58;24.00;;;18.60;;
22713;SDS011;11524;50.846;4.326;2023-07-09T10:20:23;24.10;;;17.40;;
22713;SDS011;11524;50.846;4.326;2023-07-09T10:22:57;20.07;;;16.80;;
22713;SDS011;11524;50.846;4.326;2023-07-09T10:34:06;19.40;;;14.50;;
22713;SDS011;11524;50.846;4.326;2023-07-09T10:37:00;18.35;;;13.55;;
22713;SDS011;11524;50.846;4.326;2023-07-09T10:39:47;17.98;;;13.30;;
22713;SDS011;11524;50.846;4.326;2023-07-09T10:45:14;15.85;;;13.57;;
22713;SDS011;11524;50.846;4.326;2023-07-09T10:47:49;21.65;;;15.38;;
22713;SDS011;11524;50.846;4.326;2023-07-09T10:50:24;19.40;;;13.45;;
22713;SDS011;11524;50.846;4.326;2023-07-09T10:52:59;17.65;;;13.55;;
22713;SDS011;11524;50.846;4.326;2023-07-09T10:55:40;19.35;;;13.10;;
22713;SDS011;11524;50.846;4.326;2023-07-09T10:58:23;18.50;;;12.43;;
22713;SDS011;11524;50.846;4.326;2023-07-09T11:00:53;16.02;;;11.85;;
22713;SDS011;11524;50.846;4.326;2023-07-09T11:03:21;18.17;;;10.57;;
22713;SDS011;11524;50.846;4.326;2023-07-09T11:06:04;12.93;;;8.73;;
22713;SDS011;11524;50.846;4.326;2023-07-09T11:08:47;9.20;;;7.40;;
22713;SDS011;11524;50.846;4.326;2023-07-09T11:11:21;10.77;;;7.10;;
22713;SDS011;11524;50.846;4.326;2023-07-09T11:14:00;7.90;;;6.57;;
22713;SDS011;11524;50.846;4.326;2023-07-09T11:16:35;9.75;;;6.20;;
22713;SDS011;11524;50.846;4.326;2023-07-09T11:21:31;10.38;;;5.97;;
22713;SDS011;11524;50.846;4.326;2023-07-09T11:23:58;11.07;;;5.88;;
22713;SDS011;11524;50.846;4.326;2023-07-09T11:26:26;9.43;;;5.05;;
22713;SDS011;11524;50.846;4.326;2023-07-09T11:31:41;8.80;;;5.30;;
22713;SDS011;11524;50.846;4.326;2023-07-09T11:41:48;9.00;;;5.00;;
22713;SDS011;11524;50.846;4.326;2023-07-09T11:44:18;10.93;;;4.95;;
22713;SDS011;11524;50.846;4.326;2023-07-09T11:49:23;10.43;;;5.97;;
22713;SDS011;11524;50.846;4.326;2023-07-09T11:51:56;8.63;;;5.10;;
22713;SDS011;11524;50.846;4.326;2023-07-09T11:56:54;9.73;;;5.10;;
22713;SDS011;11524;50.846;4.326;2023-07-09T11:59:22;10.63;;;5.20;;
22713;SDS011;11524;50.846;4.326;2023-07-09T12:01:47;8.73;;;5.10;;
22713;SDS011;11524;50.846;4.326;2023-07-09T12:04:16;10.02;;;5.25;;
22713;SDS011;11524;50.846;4.326;2023-07-09T12:06:44;7.70;;;4.97;;
22713;SDS011;11524;50.846;4.326;2023-07-09T12:09:18;8.98;;;4.57;;
22713;SDS011;11524;50.846;4.326;2023-07-09T12:11:46;9.70;;;5.20;;
22713;SDS011;11524;50.846;4.326;2023-07-09T12:14:20;9.23;;;5.38;;
22713;SDS011;11524;50.846;4.326;2023-07-09T12:19:16;11.20;;;6.28;;
22713;SDS011;11524;50.846;4.326;2023-07-09T12:21:44;13.45;;;5.95;;
22713;SDS011;11524;50.846;4.326;2023-07-09T12:24:57;13.60;;;6.30;;
22713;SDS011;11524;50.846;4.326;2023-07-09T12:27:17;12.23;;;6.10;;
22713;SDS011;11524;50.846;4.326;2023-07-09T12:29:52;12.98;;;6.53;;
22713;SDS011;11524;50.846;4.326;2023-07-09T12:32:19;14.38;;;7.47;;
22713;SDS011;11524;50.846;4.326;2023-07-09T12:34:50;11.63;;;6.20;;
22713;SDS011;11524;50.846;4.326;2023-07-09T12:37:17;11.07;;;6.18;;
22713;SDS011;11524;50.846;4.326;2023-07-09T12:39:45;12.43;;;6.65;;
22713;SDS011;11524;50.846;4.326;2023-07-09T12:42:16;9.52;;;6.35;;
22713;SDS011;11524;50.846;4.326;2023-07-09T12:44:48;11.20;;;7.05;;
22713;SDS011;11524;50.846;4.326;2023-07-09T12:47:15;11.48;;;5.88;;
22713;SDS011;11524;50.846;4.326;2023-07-09T12:49:43;12.45;;;8.18;;
22713;SDS011;11524;50.846;4.326;2023-07-09T12:52:20;12.60;;;7.35;;
22713;SDS011;11524;50.846;4.326;2023-07-09T12:55:00;10.82;;;6.95;;
22713;SDS011;11524;50.846;4.326;2023-07-09T12:57:28;10.88;;;8.05;;
22713;SDS011;11524;50.846;4.326;2023-07-09T12:59:55;11.07;;;6.70;;
22713;SDS011;11524;50.846;4.326;2023-07-09T13:02:24;14.05;;;7.95;;
22713;SDS011;11524;50.846;4.326;2023-07-09T13:04:58;15.18;;;8.48;;
22713;SDS011;11524;50.846;4.326;2023-07-09T13:07:29;11.20;;;7.15;;
22713;SDS011;11524;50.846;4.326;2023-07-09T13:10:03;12.13;;;7.50;;
22713;SDS011;11524;50.846;4.326;2023-07-09T13:12:32;13.17;;;7.23;;
22713;SDS011;11524;50.846;4.326;2023-07-09T13:14:58;10.95;;;7.38;;
22713;SDS011;11524;50.846;4.326;2023-07-09T13:17:27;14.07;;;7.70;;
22713;SDS011;11524;50.846;4.326;2023-07-09T13:19:54;12.23;;;7.30;;
22713;SDS011;11524;50.846;4.326;2023-07-09T13:22:21;11.45;;;7.13;;
22713;SDS011;11524;50.846;4.326;2023-07-09T13:24:48;14.00;;;7.55;;
22713;SDS011;11524;50.846;4.326;2023-07-09T13:27:14;13.20;;;7.68;;
22713;SDS011;11524;50.846;4.326;2023-07-09T13:29:40;10.50;;;7.13;;
22713;SDS011;11524;50.846;4.326;2023-07-09T13:32:10;11.50;;;7.00;;
22713;SDS011;11524;50.846;4.326;2023-07-09T13:34:36;13.00;;;7.43;;
22713;SDS011;11524;50.846;4.326;2023-07-09T13:37:04;10.32;;;6.65;;
22713;SDS011;11524;50.846;4.326;2023-07-09T13:39:30;9.30;;;6.30;;
22713;SDS011;11524;50.846;4.326;2023-07-09T13:41:56;11.65;;;6.45;;
22713;SDS011;11524;50.846;4.326;2023-07-09T13:44:23;11.27;;;6.25;;
22713;SDS011;11524;50.846;4.326;2023-07-09T13:46:51;11.65;;;7.28;;
22713;SDS011;11524;50.846;4.326;2023-07-09T13:49:18;9.63;;;6.30;;
22713;SDS011;11524;50.846;4.326;2023-07-09T13:51:45;10.18;;;6.65;;
22713;SDS011;11524;50.846;4.326;2023-07-09T13:54:20;13.93;;;6.88;;
22713;SDS011;11524;50.846;4.326;2023-07-09T13:56:48;10.30;;;6.30;;
22713;SDS011;11524;50.846;4.326;2023-07-09T13:59:24;8.65;;;6.25;;
22713;SDS011;11524;50.846;4.326;2023-07-09T14:01:51;11.60;;;6.43;;
22713;SDS011;11524;50.846;4.326;2023-07-09T14:04:19;10.25;;;7.20;;
22713;SDS011;11524;50.846;4.326;2023-07-09T14:06:46;10.05;;;6.18;;
22713;SDS011;11524;50.846;4.326;2023-07-09T14:09:12;10.70;;;6.70;;
22713;SDS011;11524;50.846;4.326;2023-07-09T14:11:40;10.45;;;6.20;;
22713;SDS011;11524;50.846;4.326;2023-07-09T14:14:17;10.70;;;6.53;;
22713;SDS011;11524;50.846;4.326;2023-07-09T14:16:44;12.20;;;5.97;;
22713;SDS011;11524;50.846;4.326;2023-07-09T14:19:16;11.93;;;6.13;;
22713;SDS011;11524;50.846;4.326;2023-07-09T14:21:44;9.50;;;5.80;;
22713;SDS011;11524;50.846;4.326;2023-07-09T14:24:24;9.93;;;6.05;;
22713;SDS011;11524;50.846;4.326;2023-07-09T14:26:52;11.23;;;5.65;;
22713;SDS011;11524;50.846;4.326;2023-07-09T14:29:19;11.00;;;6.20;;
22713;SDS011;11524;50.846;4.326;2023-07-09T14:31:45;9.90;;;5.90;;
22713;SDS011;11524;50.846;4.326;2023-07-09T14:36:53;9.25;;;4.78;;
22713;SDS011;11524;50.846;4.326;2023-07-09T14:39:20;8.68;;;4.93;;
22713;SDS011;11524;50.846;4.326;2023-07-09T14:41:46;6.40;;;5.00;;
22713;SDS011;11524;50.846;4.326;2023-07-09T14:44:22;9.38;;;5.25;;
22713;SDS011;11524;50.846;4.326;2023-07-09T14:46:49;9.55;;;5.25;;
22713;SDS011;11524;50.846;4.326;2023-07-09T14:49:17;8.90;;;5.05;;
22713;SDS011;11524;50.846;4.326;2023-07-09T14:51:43;11.73;;;5.00;;
22713;SDS011;11524;50.846;4.326;2023-07-09T14:56:45;40.30;;;5.78;;
22713;SDS011;11524;50.846;4.326;2023-07-09T14:59:11;13.35;;;4.97;;
22713;SDS011;11524;50.846;4.326;2023-07-09T15:01:37;12.27;;;4.82;;
22713;SDS011;11524;50.846;4.326;2023-07-09T15:04:07;9.13;;;4.97;;
22713;SDS011;11524;50.846;4.326;2023-07-09T15:06:55;9.88;;;4.78;;
22713;SDS011;11524;50.846;4.326;2023-07-09T15:09:23;9.50;;;5.07;;
22713;SDS011;11524;50.846;4.326;2023-07-09T15:12:12;9.50;;;4.80;;
22713;SDS011;11524;50.846;4.326;2023-07-09T15:14:47;15.63;;;5.78;;
22713;SDS011;11524;50.846;4.326;2023-07-09T15:17:13;9.82;;;5.15;;
22713;SDS011;11524;50.846;4.326;2023-07-09T15:19:39;10.05;;;4.65;;
22713;SDS011;11524;50.846;4.326;2023-07-09T15:22:05;9.00;;;5.35;;
22713;SDS011;11524;50.846;4.326;2023-07-09T15:24:42;7.90;;;4.93;;
22713;SDS011;11524;50.846;4.326;2023-07-09T15:27:08;9.43;;;5.38;;
22713;SDS011;11524;50.846;4.326;2023-07-09T15:29:34;11.05;;;5.38;;
22713;SDS011;11524;50.846;4.326;2023-07-09T15:31:59;9.32;;;5.68;;
22713;SDS011;11524;50.846;4.326;2023-07-09T15:34:25;10.50;;;5.22;;
22713;SDS011;11524;50.846;4.326;2023-07-09T15:36:51;10.88;;;5.53;;
22713;SDS011;11524;50.846;4.326;2023-07-09T15:39:17;9.07;;;5.05;;
22713;SDS011;11524;50.846;4.326;2023-07-09T15:41:44;11.23;;;5.30;;
22713;SDS011;11524;50.846;4.326;2023-07-09T15:44:13;8.95;;;4.63;;
22713;SDS011;11524;50.846;4.326;2023-07-09T15:46:40;7.82;;;5.00;;
22713;SDS011;11524;50.846;4.326;2023-07-09T15:49:14;9.48;;;5.40;;